Orondo, Washington
Current Conditions -  °F | °C
As of 11:55 PM on Wednesday 28 Jan 2015 (Local Time) from KEAT Reporting Station
Overcast Overcast  
Wind Chill:   Ceiling: 800
Heat Index:   Visibility: 10mi
Dew Point: -1°   Wind: 0mph
Humidity: 82%   Direction: NA
Pressure: 30.49"   Gusts: NA
Location:  47.63°N, 120.22°W
Report Text: KEAT 290755Z AUTO 00000KT 10SM OVC008 02/M01 A3049 RMK AO2 SLP336 T00171011 400280011
Loading
Personal Weather Stations






























Interactive Weather Map New forecast layout! Learn more

10-Day Weather Forecast

Advertisements
Track Severe Weather on mobile